Mount Zion, North Carolina
Current Conditions -  °F | °C
As of 6:54 PM on Monday 20 Oct 2014 (Local Time) from KGSO Reporting Station
Broken Clouds Broken Clouds  
Wind Chill: 62°   Ceiling: 18000
Heat Index: 62°   Visibility: 10mi
Dew Point: 46°   Wind: 5mph
Humidity: 56%   Direction: 250°WSW
Pressure: 29.98"   Gusts: NA
Location:  36.1157°N, 79.7378°W
Report Text: KGSO 202254Z 25004KT 10SM FEW060 BKN180 BKN250 17/08 A2998 RMK AO2 SLP149 T01670078
Loading
Personal Weather Stations






























Interactive Weather Map
Tropical Storm Tracking
New forecast layout! Learn more

10-Day Weather Forecast

Advertisements
Track Severe Weather on mobile